createdAt,value
2019-01-26T00:00:23.743Z,101828.77
2019-01-26T00:03:27.504Z,101819.71
2019-01-26T00:06:31.234Z,101816.07
2019-01-26T00:09:34.920Z,101812.12
2019-01-26T00:12:38.564Z,101814.20
2019-01-26T00:15:42.311Z,101806.69
2019-01-26T00:18:45.985Z,101803.28
2019-01-26T00:21:49.664Z,101802.34
2019-01-26T00:24:53.446Z,101796.85
2019-01-26T00:27:57.066Z,101798.68
2019-01-26T00:31:00.715Z,101803.03
2019-01-26T00:34:04.493Z,101801.91
2019-01-26T00:37:08.234Z,101789.57
2019-01-26T00:40:12.000Z,101786.81
2019-01-26T00:43:15.572Z,101787.42
2019-01-26T00:46:19.183Z,101789.85
2019-01-26T00:49:22.877Z,101785.75
2019-01-26T00:52:26.540Z,101784.41
2019-01-26T00:55:30.132Z,101776.30
2019-01-26T00:58:33.773Z,101776.49
2019-01-26T01:01:37.412Z,101775.22
2019-01-26T01:04:41.149Z,101770.37
2019-01-26T01:07:44.871Z,101770.61
2019-01-26T01:10:48.459Z,101774.23
2019-01-26T01:13:52.004Z,101776.74
2019-01-26T01:16:55.707Z,101776.02
2019-01-26T01:19:59.349Z,101776.62
2019-01-26T01:23:03.061Z,101774.29
2019-01-26T01:26:06.724Z,101773.35
2019-01-26T01:29:10.498Z,101771.87
2019-01-26T01:32:14.055Z,101772.80
2019-01-26T01:35:17.667Z,101763.68
2019-01-26T01:38:21.301Z,101756.62
2019-01-26T01:41:24.933Z,101753.47
2019-01-26T01:44:28.570Z,101760.75
2019-01-26T01:47:32.169Z,101757.97
2019-01-26T01:50:35.776Z,101756.33
2019-01-26T01:53:39.497Z,101759.02
2019-01-26T01:56:43.149Z,101754.25
2019-01-26T01:59:46.870Z,101749.41
2019-01-26T02:02:51.467Z,101751.38
2019-01-26T02:05:56.157Z,101749.05
2019-01-26T02:08:59.749Z,101741.90
2019-01-26T02:12:03.303Z,101737.48
2019-01-26T02:15:07.530Z,101743.23
2019-01-26T02:18:11.189Z,101737.41
2019-01-26T02:21:14.856Z,101730.65
2019-01-26T02:24:18.496Z,101727.70
2019-01-26T02:27:22.290Z,101717.17
2019-01-26T02:30:25.877Z,101706.82
2019-01-26T02:33:29.406Z,101699.99
2019-01-26T02:36:33.108Z,101694.33
2019-01-26T02:39:36.713Z,101694.82
2019-01-26T02:42:40.439Z,101693.93
2019-01-26T02:45:44.102Z,101697.64
2019-01-26T02:48:47.692Z,101690.96
2019-01-26T02:51:51.186Z,101686.63
2019-01-26T02:54:54.856Z,101693.64
2019-01-26T02:57:58.542Z,101690.31
2019-01-26T03:01:02.142Z,101688.04
2019-01-26T03:04:05.718Z,101687.41
2019-01-26T03:07:09.373Z,101693.45
2019-01-26T03:10:14.767Z,101685.95
2019-01-26T03:13:18.408Z,101682.05
2019-01-26T03:16:21.995Z,101675.47
2019-01-26T03:19:25.614Z,101669.74
2019-01-26T03:22:29.185Z,101672.76
2019-01-26T03:25:32.804Z,101665.02
2019-01-26T03:28:36.396Z,101654.88
2019-01-26T03:31:39.982Z,101654.57
2019-01-26T03:34:43.541Z,101646.75
2019-01-26T03:37:47.268Z,101645.72
2019-01-26T03:40:50.770Z,101632.26
2019-01-26T03:43:54.297Z,101630.60
2019-01-26T03:46:57.905Z,101625.60
2019-01-26T03:50:01.551Z,101623.80
2019-01-26T03:53:05.172Z,101614.17
2019-01-26T03:56:08.722Z,101621.55
2019-01-26T03:59:12.431Z,101630.24
2019-01-26T04:02:16.114Z,101630.34
2019-01-26T04:05:19.748Z,101631.95
2019-01-26T04:08:23.407Z,101640.64
2019-01-26T04:11:27.006Z,101634.77
2019-01-26T04:14:30.628Z,101632.67
2019-01-26T04:17:34.279Z,101626.81
2019-01-26T04:20:37.982Z,101632.49
2019-01-26T04:23:41.620Z,101633.53
2019-01-26T04:26:45.280Z,101629.32
2019-01-26T04:29:48.958Z,101638.89
2019-01-26T04:32:52.527Z,101642.49
2019-01-26T04:35:56.144Z,101647.40
2019-01-26T04:38:59.742Z,101642.36
2019-01-26T04:42:03.379Z,101639.64
2019-01-26T04:45:08.797Z,101630.46
2019-01-26T04:48:12.425Z,101628.69
2019-01-26T04:51:16.045Z,101621.69
2019-01-26T04:54:19.617Z,101624.08
2019-01-26T04:57:23.230Z,101629.58
2019-01-26T05:00:28.036Z,101638.37
2019-01-26T05:03:31.667Z,101633.37
2019-01-26T05:06:35.235Z,101624.09
2019-01-26T05:09:38.988Z,101626.29
2019-01-26T05:12:42.582Z,101624.18
2019-01-26T05:15:46.182Z,101623.40
2019-01-26T05:18:49.731Z,101623.92
2019-01-26T05:21:53.410Z,101623.35
2019-01-26T05:24:57.098Z,101615.63
2019-01-26T05:28:00.804Z,101616.94
2019-01-26T05:31:04.512Z,101616.37
2019-01-26T05:34:08.203Z,101628.05
2019-01-26T05:37:11.931Z,101632.93
2019-01-26T05:40:16.230Z,101642.37
2019-01-26T05:43:19.920Z,101636.10
2019-01-26T05:46:23.610Z,101637.01
2019-01-26T05:49:27.267Z,101632.81
2019-01-26T05:52:30.967Z,101629.59
2019-01-26T05:55:34.687Z,101631.56
2019-01-26T05:58:38.286Z,101626.62
2019-01-26T06:01:42.046Z,101622.54
2019-01-26T06:04:45.652Z,101611.68
2019-01-26T06:07:50.133Z,101617.13
2019-01-26T06:10:52.969Z,101615.76
2019-01-26T06:13:56.678Z,101615.51
2019-01-26T06:17:00.207Z,101621.70
2019-01-26T06:20:03.985Z,101625.78
2019-01-26T06:23:07.610Z,101629.12
2019-01-26T06:26:11.200Z,101630.48
2019-01-26T06:29:14.819Z,101635.84
2019-01-26T06:32:18.568Z,101638.47
2019-01-26T06:35:22.263Z,101638.82
2019-01-26T06:38:25.945Z,101644.14
2019-01-26T06:41:29.564Z,101649.50
2019-01-26T06:44:33.184Z,101651.65
2019-01-26T06:47:37.002Z,101644.40
2019-01-26T06:50:40.706Z,101638.74
2019-01-26T06:53:44.403Z,101646.07
2019-01-26T06:56:49.171Z,101636.20
2019-01-26T06:59:52.841Z,101645.42
2019-01-26T07:02:56.652Z,101639.23
2019-01-26T07:06:11.422Z,101638.91
2019-01-26T07:09:15.178Z,101643.18
2019-01-26T07:12:18.963Z,101644.18
2019-01-26T07:15:22.730Z,101641.78
2019-01-26T07:18:26.246Z,101627.15
2019-01-26T07:21:29.929Z,101636.76
2019-01-26T07:24:33.622Z,101629.52
2019-01-26T07:27:37.391Z,101636.94
2019-01-26T07:30:41.080Z,101638.07
2019-01-26T07:33:44.962Z,101635.70
2019-01-26T07:36:48.595Z,101640.27
2019-01-26T07:39:53.143Z,101645.32
2019-01-26T07:42:56.882Z,101639.83
2019-01-26T07:46:00.587Z,101639.74
2019-01-26T07:49:04.294Z,101639.22
2019-01-26T07:52:07.873Z,101630.73
2019-01-26T07:55:11.621Z,101629.05
2019-01-26T07:58:15.211Z,101617.25
2019-01-26T08:01:18.858Z,101616.57
2019-01-26T08:04:22.469Z,101618.89
2019-01-26T08:07:26.352Z,101619.16
2019-01-26T08:10:32.814Z,101626.63
2019-01-26T08:13:36.495Z,101619.11
2019-01-26T08:16:40.245Z,101618.67
2019-01-26T08:19:43.947Z,101619.10
2019-01-26T08:22:48.711Z,101621.87
2019-01-26T08:25:52.475Z,101621.16
2019-01-26T08:28:56.192Z,101618.15
2019-01-26T08:32:00.116Z,101619.12
2019-01-26T08:35:05.237Z,101616.97
2019-01-26T08:38:08.990Z,101623.48
2019-01-26T08:41:12.757Z,101617.71
2019-01-26T08:44:16.451Z,101610.84
2019-01-26T08:47:20.150Z,101609.03
2019-01-26T08:50:25.136Z,101608.47
2019-01-26T08:53:28.778Z,101609.03
2019-01-26T08:56:32.591Z,101613.98
2019-01-26T08:59:36.229Z,101607.05
2019-01-26T09:04:46.959Z,101601.56
2019-01-26T09:07:50.788Z,101614.85
2019-01-26T09:10:54.761Z,101614.41
2019-01-26T09:13:58.406Z,101613.61
2019-01-26T09:17:02.214Z,101607.15
2019-01-26T09:20:07.882Z,101602.47
2019-01-26T09:23:11.649Z,101605.44
2019-01-26T09:26:17.125Z,101596.82
2019-01-26T09:29:20.783Z,101595.42
2019-01-26T09:32:24.406Z,101601.36
2019-01-26T09:35:28.026Z,101605.11
2019-01-26T09:38:31.681Z,101610.44
2019-01-26T09:41:35.309Z,101612.92
2019-01-26T09:44:38.955Z,101619.56
2019-01-26T09:47:42.572Z,101621.59
2019-01-26T09:50:46.355Z,101609.28
2019-01-26T09:53:49.887Z,101614.12
2019-01-26T09:56:53.489Z,101609.43
2019-01-26T09:59:57.087Z,101599.70
2019-01-26T10:03:00.673Z,101593.34
2019-01-26T10:06:04.323Z,101588.43
2019-01-26T10:09:10.922Z,101576.18
2019-01-26T10:12:14.522Z,101572.35
2019-01-26T10:15:18.496Z,101561.53
2019-01-26T10:18:22.152Z,101562.21
2019-01-26T10:21:25.871Z,101553.51
2019-01-26T10:24:29.523Z,101544.88
2019-01-26T10:27:33.290Z,101536.83
2019-01-26T10:30:41.505Z,101536.11
2019-01-26T10:33:45.235Z,101529.55
2019-01-26T10:36:53.269Z,101517.53
2019-01-26T10:39:56.868Z,101514.43
2019-01-26T10:43:01.329Z,101518.56
2019-01-26T10:46:05.111Z,101512.47
2019-01-26T10:49:08.723Z,101511.45
2019-01-26T10:52:12.997Z,101503.03
2019-01-26T10:55:19.243Z,101485.97
2019-01-26T10:58:24.750Z,101492.16
2019-01-26T11:01:28.657Z,101487.75
2019-01-26T11:04:32.785Z,101494.72
2019-01-26T11:07:36.681Z,101492.86
2019-01-26T11:10:40.662Z,101490.17
2019-01-26T11:13:45.580Z,101482.80
2019-01-26T11:16:49.224Z,101480.81
2019-01-26T11:19:52.781Z,101478.32
2019-01-26T11:23:03.763Z,101470.77
2019-01-26T11:26:08.718Z,101470.88
2019-01-26T11:29:13.341Z,101462.25
2019-01-26T11:35:49.027Z,101469.05
2019-01-26T11:38:52.721Z,101473.53
2019-01-26T11:41:56.944Z,101479.10
2019-01-26T11:47:10.092Z,101472.87
2019-01-26T11:50:18.314Z,101463.90
2019-01-26T11:53:22.644Z,101460.93
2019-01-26T11:56:31.916Z,101457.40
2019-01-26T11:59:36.128Z,101457.96
2019-01-26T12:02:48.379Z,101455.58
2019-01-26T12:05:58.453Z,101455.48
2019-01-26T12:09:05.137Z,101450.13
2019-01-26T12:15:41.359Z,101426.99
2019-01-26T12:18:45.836Z,101424.46
2019-01-26T12:25:21.083Z,101427.90
2019-01-26T12:28:24.739Z,101425.19
2019-01-26T12:31:28.561Z,101417.65
2019-01-26T12:34:32.539Z,101412.86
2019-01-26T12:37:36.193Z,101408.61
2019-01-26T12:40:40.988Z,101401.89
2019-01-26T12:43:44.599Z,101402.44
2019-01-26T12:46:48.388Z,101399.91
2019-01-26T12:49:52.042Z,101394.86
2019-01-26T12:52:55.683Z,101392.86
2019-01-26T12:55:59.310Z,101385.59
2019-01-26T12:59:04.070Z,101390.26
2019-01-26T13:02:07.914Z,101385.42
2019-01-26T13:05:11.602Z,101380.80
2019-01-26T13:08:15.374Z,101385.42
2019-01-26T13:11:22.943Z,101371.14
2019-01-26T13:14:26.611Z,101377.26
2019-01-26T13:17:30.290Z,101365.58
2019-01-26T13:20:34.024Z,101358.59
2019-01-26T13:23:37.570Z,101371.31
2019-01-26T13:26:47.881Z,101370.21
2019-01-26T13:29:51.514Z,101366.93
2019-01-26T13:32:55.265Z,101364.52
2019-01-26T13:35:58.945Z,101356.96
2019-01-26T13:39:02.592Z,101355.25
2019-01-26T13:42:06.499Z,101353.49
2019-01-26T13:45:13.091Z,101356.58
2019-01-26T13:48:16.675Z,101345.11
2019-01-26T13:51:22.411Z,101343.02
2019-01-26T13:54:26.252Z,101345.50
2019-01-26T13:57:30.474Z,101349.35
2019-01-26T14:00:34.157Z,101345.61
2019-01-26T14:03:38.156Z,101345.83
2019-01-26T14:06:42.215Z,101341.38
2019-01-26T14:12:56.239Z,101341.38
2019-01-26T14:15:59.947Z,101337.91
2019-01-26T14:19:03.609Z,101336.08
2019-01-26T14:22:07.221Z,101333.11
2019-01-26T14:25:11.101Z,101329.33
2019-01-26T14:28:14.962Z,101330.81
2019-01-26T14:31:18.625Z,101329.87
2019-01-26T14:34:22.201Z,101324.14
2019-01-26T14:37:25.819Z,101315.55
2019-01-26T14:40:29.553Z,101312.91
2019-01-26T14:43:33.206Z,101300.12
2019-01-26T14:46:36.870Z,101300.33
2019-01-26T14:49:40.548Z,101294.61
2019-01-26T14:52:44.257Z,101294.44
2019-01-26T14:55:48.027Z,101288.06
2019-01-26T14:58:51.684Z,101281.83
2019-01-26T15:01:55.364Z,101275.23
2019-01-26T15:04:58.992Z,101280.08
2019-01-26T15:08:02.688Z,101275.54
2019-01-26T15:11:06.961Z,101274.94
2019-01-26T15:14:10.642Z,101270.20
2019-01-26T15:17:14.320Z,101267.85
2019-01-26T15:20:25.842Z,101261.83
2019-01-26T15:23:30.331Z,101255.56
2019-01-26T15:26:34.099Z,101246.68
2019-01-26T15:29:37.693Z,101239.33
2019-01-26T15:32:41.297Z,101232.67
2019-01-26T15:35:45.017Z,101231.95
2019-01-26T15:38:49.068Z,101233.34
2019-01-26T15:41:52.759Z,101227.24
2019-01-26T15:44:56.324Z,101224.69
2019-01-26T15:48:00.041Z,101212.30
2019-01-26T15:51:03.699Z,101211.19
2019-01-26T15:54:07.405Z,101214.18
2019-01-26T15:57:12.840Z,101213.18
2019-01-26T16:00:19.037Z,101209.09
2019-01-26T16:03:22.802Z,101203.60
2019-01-26T16:06:26.886Z,101193.87
2019-01-26T16:09:31.139Z,101194.22
2019-01-26T16:12:34.719Z,101189.69
2019-01-26T16:15:39.428Z,101183.50
2019-01-26T16:18:43.469Z,101182.91
2019-01-26T16:21:47.399Z,101183.00
2019-01-26T16:24:51.028Z,101178.15
2019-01-26T16:27:54.729Z,101176.93
2019-01-26T16:30:58.492Z,101172.69
2019-01-26T16:34:02.547Z,101157.93
2019-01-26T16:37:06.241Z,101157.18
2019-01-26T16:40:13.125Z,101154.60
2019-01-26T16:43:17.353Z,101146.68
2019-01-26T16:46:23.609Z,101146.81
2019-01-26T16:49:28.359Z,101145.55
2019-01-26T16:52:32.274Z,101140.74
2019-01-26T16:55:37.357Z,101139.63
2019-01-26T16:58:41.942Z,101136.11
2019-01-26T17:01:46.623Z,101127.19
2019-01-26T17:04:51.145Z,101123.01
2019-01-26T17:07:56.270Z,101126.12
2019-01-26T17:11:02.170Z,101126.07
2019-01-26T17:14:07.609Z,101128.15
2019-01-26T17:17:11.185Z,101116.94
2019-01-26T17:20:18.205Z,101111.86
2019-01-26T17:23:22.104Z,101116.48
2019-01-26T17:26:25.813Z,101115.17
2019-01-26T17:29:29.396Z,101106.86
2019-01-26T17:32:33.034Z,101107.51
2019-01-26T17:35:37.294Z,101096.95
2019-01-26T17:38:40.973Z,101093.57
2019-01-26T17:41:45.820Z,101094.92
2019-01-26T17:44:49.521Z,101092.55
2019-01-26T17:47:53.646Z,101083.53
2019-01-26T17:50:58.288Z,101083.07
2019-01-26T17:54:01.977Z,101080.42
2019-01-26T17:57:06.508Z,101072.63
2019-01-26T18:00:13.544Z,101077.01
2019-01-26T18:03:17.291Z,101068.89
2019-01-26T18:06:21.084Z,101069.73
2019-01-26T18:09:24.793Z,101059.31
2019-01-26T18:12:28.647Z,101063.78
2019-01-26T18:15:32.322Z,101061.80
2019-01-26T18:18:36.181Z,101056.02
2019-01-26T18:21:40.985Z,101054.11
2019-01-26T18:24:44.290Z,101046.91
2019-01-26T18:27:48.491Z,101043.67
2019-01-26T18:30:52.307Z,101039.19
2019-01-26T18:33:56.103Z,101033.62
2019-01-26T18:37:00.985Z,101038.72
2019-01-26T18:40:06.007Z,101027.05
2019-01-26T18:43:09.829Z,101024.56
2019-01-26T18:46:13.593Z,101011.87
2019-01-26T18:49:17.356Z,101011.71
2019-01-26T18:52:21.116Z,101006.17
2019-01-26T18:55:24.860Z,100999.24
2019-01-26T18:58:28.989Z,100995.64
2019-01-26T19:01:33.122Z,100993.72
2019-01-26T19:04:42.649Z,100986.91
2019-01-26T19:07:46.914Z,100978.28
2019-01-26T19:10:50.561Z,100974.99
2019-01-26T19:13:54.542Z,100973.74
2019-01-26T19:16:58.652Z,100968.45
2019-01-26T19:20:02.357Z,100959.93
2019-01-26T19:23:07.639Z,100949.82
2019-01-26T19:26:11.436Z,100949.42
2019-01-26T19:29:17.850Z,100943.92
2019-01-26T19:32:22.153Z,100937.03
2019-01-26T19:35:25.980Z,100920.26
2019-01-26T19:38:29.621Z,100914.39
2019-01-26T19:41:33.767Z,100910.28
2019-01-26T19:44:37.750Z,100910.03
2019-01-26T19:47:41.541Z,100905.37
2019-01-26T19:50:45.249Z,100900.63
2019-01-26T19:53:48.988Z,100900.93
2019-01-26T19:56:52.943Z,100896.61
2019-01-26T19:59:57.137Z,100892.74
2019-01-26T20:03:00.758Z,100889.42
2019-01-26T20:06:04.431Z,100880.38
2019-01-26T20:09:09.585Z,100871.16
2019-01-26T20:12:13.428Z,100867.21
2019-01-26T20:15:19.503Z,100860.68
2019-01-26T20:18:23.477Z,100845.32
2019-01-26T20:21:29.225Z,100841.27
2019-01-26T20:24:32.956Z,100838.47
2019-01-26T20:27:36.607Z,100821.72
2019-01-26T20:30:40.476Z,100817.60
2019-01-26T20:33:44.005Z,100815.26
2019-01-26T20:36:47.674Z,100806.54
2019-01-26T20:39:51.286Z,100801.30
2019-01-26T20:42:55.034Z,100798.74
2019-01-26T20:45:58.912Z,100787.79
2019-01-26T20:49:02.534Z,100784.90
2019-01-26T20:52:06.268Z,100768.66
2019-01-26T20:55:10.478Z,100767.13
2019-01-26T20:58:14.204Z,100760.81
2019-01-26T21:01:17.858Z,100752.52
2019-01-26T21:04:21.486Z,100742.60
2019-01-26T21:07:25.213Z,100746.47
2019-01-26T21:10:30.055Z,100736.44
2019-01-26T21:13:33.826Z,100729.16
2019-01-26T21:16:37.618Z,100725.92
2019-01-26T21:19:42.290Z,100719.14
2019-01-26T21:22:46.091Z,100712.10
2019-01-26T21:25:49.996Z,100705.05
2019-01-26T21:28:53.691Z,100704.52
2019-01-26T21:31:58.012Z,100698.65
2019-01-26T21:35:02.773Z,100695.93
2019-01-26T21:38:06.456Z,100692.33
2019-01-26T21:41:10.199Z,100685.97
2019-01-26T21:44:13.769Z,100675.44
2019-01-26T21:47:17.327Z,100670.38
2019-01-26T21:50:25.586Z,100663.60
2019-01-26T21:53:29.316Z,100648.55
2019-01-26T21:56:33.456Z,100647.91
2019-01-26T21:59:37.333Z,100639.95
2019-01-26T22:02:40.985Z,100638.36
2019-01-26T22:05:44.919Z,100630.47
2019-01-26T22:08:49.294Z,100619.72
2019-01-26T22:11:52.951Z,100621.04
2019-01-26T22:14:56.581Z,100615.49
2019-01-26T22:18:00.181Z,100609.98
2019-01-26T22:21:03.996Z,100610.87
2019-01-26T22:24:07.694Z,100603.97
2019-01-26T22:27:11.714Z,100598.55
2019-01-26T22:30:19.984Z,100595.85
2019-01-26T22:33:24.122Z,100588.41
2019-01-26T22:36:28.091Z,100589.62
2019-01-26T22:39:31.962Z,100583.23
2019-01-26T22:42:35.674Z,100576.36
2019-01-26T22:45:39.681Z,100575.41
2019-01-26T22:48:43.288Z,100567.19
2019-01-26T22:51:53.225Z,100560.51
2019-01-26T22:54:51.484Z,100555.63
2019-01-26T22:57:55.335Z,100550.41
2019-01-26T23:01:10.637Z,100552.06
2019-01-26T23:05:26.158Z,100542.34
2019-01-26T23:08:30.953Z,100525.43
2019-01-26T23:12:21.773Z,100525.91
2019-01-26T23:16:51.978Z,100515.83
2019-01-26T23:20:01.836Z,100495.89
2019-01-26T23:23:24.181Z,100487.65
2019-01-26T23:31:06.607Z,100475.38
2019-01-26T23:34:10.285Z,100468.11
2019-01-26T23:37:14.077Z,100468.77
2019-01-26T23:40:17.897Z,100466.23
2019-01-26T23:43:21.575Z,100462.10
2019-01-26T23:46:25.211Z,100455.30
2019-01-26T23:49:28.876Z,100442.41
2019-01-26T23:52:32.539Z,100432.81
2019-01-26T23:55:36.153Z,100413.78
2019-01-26T23:58:39.792Z,100414.81
